Buxfavourite — A8TQ4 — position and weather

sailwx.info

Track history (hours):
 
Tides and Currents Weather Stations Pressure Air Temp Water Temp Dewpoint Dewpoint Depression Visibility Wind Speed Wind Dir Waves Ship Positions

Buxfavourite

Last reported at 2018-May-29 23:47 UTC. Time now 2018-Jun-25 00:15 UTC.
Position N 01°23' E 103°16'.
Warning: this ship's position is 26 days out of date.

Length 208 m; draft 11.2 m.

Type: Ship. MMSI: 636091848.

Date/timePositionNaut miles runAvg speedWind from/ knotsBaromVisibWave heightAir tempDewpointWater temp
2018-May-29 23:47N 01°23' E 103°16'516.0
2018-May-29 23:29N 01°19' E 103°19'816.1
2018-May-29 23:00N 01°15' E 103°25'713.4
2018-May-29 22:29N 01°15' E 103°32'610.8
2018-May-29 21:57N 01°21' E 103°33'1 2.9
2018-May-29 21:28N 01°22' E 103°33'0 0.0
2018-May-29 19:14N 01°22' E 103°33'0 0.0
2018-May-29 18:56N 01°22' E 103°33'0 0.0
2018-May-29 18:08N 01°22' E 103°33'0 0.0
2018-May-29 17:44N 01°22' E 103°33'0 0.0
2018-May-29 17:29N 01°22' E 103°33'0 0.0
2018-May-29 16:53N 01°22' E 103°33'0 0.0
2018-May-29 15:25N 01°22' E 103°33'0 0.0
2018-May-29 14:55N 01°22' E 103°33'0 0.0
2018-May-29 13:35N 01°22' E 103°33'0 0.0
2018-May-29 10:10N 01°22' E 103°33'0 0.0
2018-May-29 09:43N 01°22' E 103°33'0 0.0
2018-May-29 07:06N 01°22' E 103°33'0 0.0
2018-May-29 06:51N 01°22' E 103°33'0 0.0
2018-May-29 05:44N 01°22' E 103°33'0 0.0
2018-May-29 05:04N 01°22' E 103°33'0 0.0
2018-May-29 04:14N 01°22' E 103°33'0 0.0
2018-May-29 03:25N 01°22' E 103°33'0 0.3
2018-May-29 02:59N 01°22' E 103°33'3 5.8
2018-May-29 02:30N 01°19' E 103°33'611.3
2018-May-29 02:00N 01°14' E 103°32'2 3.7
2018-May-29 01:27N 01°15' E 103°30'0 0.1
2018-May-29 01:00N 01°15' E 103°30'0 0.0
2018-May-29 00:30N 01°15' E 103°30'0 0.0
2018-May-28 23:41N 01°15' E 103°30'0 0.0
2018-May-28 23:23N 01°15' E 103°30'0 0.0
2018-May-28 22:59N 01°15' E 103°30'0 0.0
2018-May-28 22:25N 01°15' E 103°30'0 0.0
2018-May-28 21:55N 01°15' E 103°30'0 0.0
2018-May-28 21:28N 01°15' E 103°30'0 0.0
2018-May-28 20:57N 01°15' E 103°30'0 0.0
2018-May-28 20:22N 01°15' E 103°30'0 0.0
2018-May-28 19:55N 01°15' E 103°30'0 0.0
2018-May-28 19:31N 01°15' E 103°30'0 0.0
2018-May-28 18:57N 01°15' E 103°30'0 0.0
2018-May-28 18:29N 01°15' E 103°30'0 0.0
2018-May-28 18:00N 01°15' E 103°30'0 0.1
2018-May-28 17:26N 01°15' E 103°30'0 0.0
2018-May-28 16:52N 01°15' E 103°30'0 0.0
2018-May-28 16:29N 01°15' E 103°30'0 0.1
2018-May-28 15:59N 01°15' E 103°30'1 1.7
2018-May-28 15:30N 01°14' E 103°30'4 8.6
2018-May-28 15:00N 01°12' E 103°34'510.0
2018-May-28 14:29N 01°12' E 103°39'510.3
2018-May-28 14:00N 01°15' E 103°44'3 6.5
2018-May-28 13:30N 01°16' E 103°47'0 0.0
2018-May-28 13:00N 01°16' E 103°47'0 0.0
2018-May-28 12:30N 01°16' E 103°47'0 0.0
2018-May-28 12:00N 01°16' E 103°47'0 0.0
2018-May-28 11:29N 01°16' E 103°47'0 0.0
2018-May-28 11:00N 01°16' E 103°47'0 0.0
2018-May-28 10:30N 01°16' E 103°47'0 0.0
2018-May-28 10:00N 01°16' E 103°47'0 0.0
2018-May-28 09:23N 01°16' E 103°47'0 0.0
2018-May-28 08:58N 01°16' E 103°47'0 0.0
2018-May-28 08:29N 01°16' E 103°47'0 0.0
2018-May-28 07:59N 01°16' E 103°47'0 0.0
2018-May-28 07:29N 01°16' E 103°47'0 0.0
2018-May-28 06:57N 01°16' E 103°47'0 0.0
2018-May-28 06:28N 01°16' E 103°47'0 0.0
2018-May-28 05:52N 01°16' E 103°47'0 0.0
2018-May-28 05:28N 01°16' E 103°47'0 0.0
2018-May-28 05:00N 01°16' E 103°47'0 0.0
2018-May-28 04:30N 01°16' E 103°47'0 0.0
2018-May-28 04:00N 01°16' E 103°47'0 0.0
2018-May-28 03:30N 01°16' E 103°47'0 0.0
2018-May-28 03:00N 01°16' E 103°47'0 0.0
2018-May-28 02:29N 01°16' E 103°47'0 0.0
2018-May-28 01:59N 01°16' E 103°47'0 0.0
2018-May-28 01:29N 01°16' E 103°47'0 0.0
2018-May-28 00:55N 01°16' E 103°47'0 0.0
2018-May-28 00:28N 01°16' E 103°47'0 0.0
2018-May-27 23:57N 01°16' E 103°47'0 0.0
2018-May-27 23:30N 01°16' E 103°47'0 0.0
2018-May-27 22:58N 01°16' E 103°47'0 0.0
2018-May-27 22:30N 01°16' E 103°47'0 0.0
2018-May-27 22:00N 01°16' E 103°47'0 0.0
2018-May-27 21:30N 01°16' E 103°47'0 0.2
2018-May-27 21:00N 01°16' E 103°47'0 0.5
2018-May-27 20:30N 01°16' E 103°47'0 0.1
2018-May-27 20:00N 01°16' E 103°47'0 0.1
2018-May-27 19:30N 01°16' E 103°47'0 0.2
2018-May-27 19:00N 01°16' E 103°47'1 1.5
2018-May-27 18:30N 01°15' E 103°47'2 3.2
2018-May-27 18:00N 01°14' E 103°48'2 5.0
2018-May-27 17:30N 01°13' E 103°50'4 8.1
2018-May-27 17:00N 01°13' E 103°54'2 3.4
2018-May-27 16:30N 01°14' E 103°55'5 9.7
2018-May-27 16:00N 01°16' E 103°60'510.5
2018-May-27 15:30N 01°16' E 104°05'610.8
2018-May-27 14:58N 01°17' E 104°11'510.5
2018-May-27 14:30N 01°18' E 104°16'610.9
2018-May-27 14:00N 01°19' E 104°21'612.4
2018-May-27 13:31N 01°24' E 104°25'  
2018-May-21 20:34N 01°13' E 103°56'116.3
2018-May-21 20:30N 01°13' E 103°55'612.3
2018-May-21 19:59N 01°12' E 103°49'5 9.6
2018-May-21 19:30N 01°16' E 103°47'0 0.5
2018-May-21 18:56N 01°16' E 103°47'0 0.0
2018-May-21 18:28N 01°16' E 103°47'0 0.0
2018-May-21 17:58N 01°16' E 103°47'0 0.0
2018-May-21 17:22N 01°16' E 103°47'0 0.0
2018-May-21 16:58N 01°16' E 103°47'0 0.0
2018-May-21 16:28N 01°16' E 103°47'0 0.0
2018-May-21 15:57N 01°16' E 103°47'0 0.0
2018-May-21 15:30N 01°16' E 103°47'0 0.0
2018-May-21 15:00N 01°16' E 103°47'0 0.0
2018-May-21 14:30N 01°16' E 103°47'0 0.0
2018-May-21 14:00N 01°16' E 103°47'0 0.0
2018-May-21 13:29N 01°16' E 103°47'0 0.0
2018-May-21 12:59N 01°16' E 103°47'0 0.0
2018-May-21 12:29N 01°16' E 103°47'0 0.0
2018-May-21 11:59N 01°16' E 103°47'0 0.0
2018-May-21 11:28N 01°16' E 103°47'0 0.0
2018-May-21 10:58N 01°16' E 103°47'0 0.0
2018-May-21 10:22N 01°16' E 103°47'0 0.0
2018-May-21 09:58N 01°16' E 103°47'0 0.0
2018-May-21 09:28N 01°16' E 103°47'0 0.0
2018-May-21 08:57N 01°16' E 103°47'0 0.0
2018-May-21 08:30N 01°16' E 103°47'0 0.0
2018-May-21 08:00N 01°16' E 103°47'0 0.0
2018-May-21 07:28N 01°16' E 103°47'1 2.6
2018-May-21 07:00N 01°15' E 103°46'4 8.7
2018-May-21 06:31N 01°13' E 103°42'6 9.7
2018-May-21 05:55N 01°12' E 103°36'2 3.8
2018-May-21 05:27N 01°13' E 103°35'3 5.5
2018-May-21 04:59N 01°14' E 103°32'2 4.4
2018-May-21 04:30N 01°16' E 103°33'5 8.8
2018-May-21 03:54N 01°21' E 103°33'0 0.1
2018-May-21 00:40N 01°22' E 103°33'0 0.0
2018-May-21 00:20N 01°22' E 103°33'0 0.0
2018-May-20 22:54N 01°22' E 103°33'0 0.0
2018-May-20 22:30N 01°22' E 103°33'0 0.0
2018-May-20 21:58N 01°22' E 103°33'0 0.0
2018-May-20 21:30N 01°22' E 103°33'0 0.0
2018-May-20 20:59N 01°22' E 103°33'0 0.0
2018-May-20 20:30N 01°22' E 103°33'0 0.0
2018-May-20 19:53N 01°22' E 103°33'0 0.0
2018-May-20 19:17N 01°22' E 103°33'0 0.0
2018-May-20 19:00N 01°22' E 103°33'0 0.0
2018-May-20 18:30N 01°22' E 103°33'0 0.0
2018-May-20 17:59N 01°22' E 103°33'0 0.0
2018-May-20 17:22N 01°22' E 103°33'0 0.0
2018-May-20 16:58N 01°22' E 103°33'0 0.0
2018-May-20 16:29N 01°22' E 103°33'0 0.0
2018-May-20 15:57N 01°22' E 103°33'0 0.0
2018-May-20 15:16N 01°22' E 103°33'0 0.0
2018-May-20 15:00N 01°22' E 103°33'1 1.7
2018-May-20 14:30N 01°21' E 103°33'510.6
2018-May-20 14:00N 01°16' E 103°33'3 5.7
2018-May-20 13:29N 01°14' E 103°30'2 4.9
2018-May-20 12:59N 01°15' E 103°28'0 0.0
2018-May-20 12:25N 01°15' E 103°28'0 0.0
2018-May-20 11:55N 01°15' E 103°28'0 0.0
2018-May-20 11:28N 01°15' E 103°28'0 0.1
2018-May-20 10:15N 01°15' E 103°28'0 0.1
2018-May-20 09:51N 01°15' E 103°28'1 2.2
2018-May-20 09:30N 01°14' E 103°28'3 5.2
2018-May-20 08:59N 01°12' E 103°29'3 5.5
2018-May-20 08:30N 01°11' E 103°27'4 7.6
2018-May-20 08:00N 01°12' E 103°24'4 7.6
2018-May-20 07:26N 01°15' E 103°21'  
Track history (hours):
 
Tides and Currents Weather Stations Pressure Air Temp Water Temp Dewpoint Dewpoint Depression Visibility Wind Speed Wind Dir Waves Ship Positions

Buxfavourite

Last reported at 2018-May-29 23:47 UTC. Time now 2018-Jun-25 00:15 UTC.
Position N 01°23' E 103°16'.
Warning: this ship's position is 26 days out of date.

Length 208 m; draft 11.2 m.

Type: Ship. MMSI: 636091848.

Date/timePositionNaut miles runAvg speedWind from/ knotsBaromVisibWave heightAir tempDewpointWater temp
2018-May-29 23:47N 01°23' E 103°16'516.0
2018-May-29 23:29N 01°19' E 103°19'816.1
2018-May-29 23:00N 01°15' E 103°25'713.4
2018-May-29 22:29N 01°15' E 103°32'610.8
2018-May-29 21:57N 01°21' E 103°33'1 2.9
2018-May-29 21:28N 01°22' E 103°33'0 0.0
2018-May-29 19:14N 01°22' E 103°33'0 0.0
2018-May-29 18:56N 01°22' E 103°33'0 0.0
2018-May-29 18:08N 01°22' E 103°33'0 0.0
2018-May-29 17:44N 01°22' E 103°33'0 0.0
2018-May-29 17:29N 01°22' E 103°33'0 0.0
2018-May-29 16:53N 01°22' E 103°33'0 0.0
2018-May-29 15:25N 01°22' E 103°33'0 0.0
2018-May-29 14:55N 01°22' E 103°33'0 0.0
2018-May-29 13:35N 01°22' E 103°33'0 0.0
2018-May-29 10:10N 01°22' E 103°33'0 0.0
2018-May-29 09:43N 01°22' E 103°33'0 0.0
2018-May-29 07:06N 01°22' E 103°33'0 0.0
2018-May-29 06:51N 01°22' E 103°33'0 0.0
2018-May-29 05:44N 01°22' E 103°33'0 0.0
2018-May-29 05:04N 01°22' E 103°33'0 0.0
2018-May-29 04:14N 01°22' E 103°33'0 0.0
2018-May-29 03:25N 01°22' E 103°33'0 0.3
2018-May-29 02:59N 01°22' E 103°33'3 5.8
2018-May-29 02:30N 01°19' E 103°33'611.3
2018-May-29 02:00N 01°14' E 103°32'2 3.7
2018-May-29 01:27N 01°15' E 103°30'0 0.1
2018-May-29 01:00N 01°15' E 103°30'0 0.0
2018-May-29 00:30N 01°15' E 103°30'0 0.0
2018-May-28 23:41N 01°15' E 103°30'0 0.0
2018-May-28 23:23N 01°15' E 103°30'0 0.0
2018-May-28 22:59N 01°15' E 103°30'0 0.0
2018-May-28 22:25N 01°15' E 103°30'0 0.0
2018-May-28 21:55N 01°15' E 103°30'0 0.0
2018-May-28 21:28N 01°15' E 103°30'0 0.0
2018-May-28 20:57N 01°15' E 103°30'0 0.0
2018-May-28 20:22N 01°15' E 103°30'0 0.0
2018-May-28 19:55N 01°15' E 103°30'0 0.0
2018-May-28 19:31N 01°15' E 103°30'0 0.0
2018-May-28 18:57N 01°15' E 103°30'0 0.0
2018-May-28 18:29N 01°15' E 103°30'0 0.0
2018-May-28 18:00N 01°15' E 103°30'0 0.1
2018-May-28 17:26N 01°15' E 103°30'0 0.0
2018-May-28 16:52N 01°15' E 103°30'0 0.0
2018-May-28 16:29N 01°15' E 103°30'0 0.1
2018-May-28 15:59N 01°15' E 103°30'1 1.7
2018-May-28 15:30N 01°14' E 103°30'4 8.6
2018-May-28 15:00N 01°12' E 103°34'510.0
2018-May-28 14:29N 01°12' E 103°39'510.3
2018-May-28 14:00N 01°15' E 103°44'3 6.5
2018-May-28 13:30N 01°16' E 103°47'0 0.0
2018-May-28 13:00N 01°16' E 103°47'0 0.0
2018-May-28 12:30N 01°16' E 103°47'0 0.0
2018-May-28 12:00N 01°16' E 103°47'0 0.0
2018-May-28 11:29N 01°16' E 103°47'0 0.0
2018-May-28 11:00N 01°16' E 103°47'0 0.0
2018-May-28 10:30N 01°16' E 103°47'0 0.0
2018-May-28 10:00N 01°16' E 103°47'0 0.0
2018-May-28 09:23N 01°16' E 103°47'0 0.0
2018-May-28 08:58N 01°16' E 103°47'0 0.0
2018-May-28 08:29N 01°16' E 103°47'0 0.0
2018-May-28 07:59N 01°16' E 103°47'0 0.0
2018-May-28 07:29N 01°16' E 103°47'0 0.0
2018-May-28 06:57N 01°16' E 103°47'0 0.0
2018-May-28 06:28N 01°16' E 103°47'0 0.0
2018-May-28 05:52N 01°16' E 103°47'0 0.0
2018-May-28 05:28N 01°16' E 103°47'0 0.0
2018-May-28 05:00N 01°16' E 103°47'0 0.0
2018-May-28 04:30N 01°16' E 103°47'0 0.0
2018-May-28 04:00N 01°16' E 103°47'0 0.0
2018-May-28 03:30N 01°16' E 103°47'0 0.0
2018-May-28 03:00N 01°16' E 103°47'0 0.0
2018-May-28 02:29N 01°16' E 103°47'0 0.0
2018-May-28 01:59N 01°16' E 103°47'0 0.0
2018-May-28 01:29N 01°16' E 103°47'0 0.0
2018-May-28 00:55N 01°16' E 103°47'0 0.0
2018-May-28 00:28N 01°16' E 103°47'0 0.0
2018-May-27 23:57N 01°16' E 103°47'0 0.0
2018-May-27 23:30N 01°16' E 103°47'0 0.0
2018-May-27 22:58N 01°16' E 103°47'0 0.0
2018-May-27 22:30N 01°16' E 103°47'0 0.0
2018-May-27 22:00N 01°16' E 103°47'0 0.0
2018-May-27 21:30N 01°16' E 103°47'0 0.2
2018-May-27 21:00N 01°16' E 103°47'0 0.5
2018-May-27 20:30N 01°16' E 103°47'0 0.1
2018-May-27 20:00N 01°16' E 103°47'0 0.1
2018-May-27 19:30N 01°16' E 103°47'0 0.2
2018-May-27 19:00N 01°16' E 103°47'1 1.5
2018-May-27 18:30N 01°15' E 103°47'2 3.2
2018-May-27 18:00N 01°14' E 103°48'2 5.0
2018-May-27 17:30N 01°13' E 103°50'4 8.1
2018-May-27 17:00N 01°13' E 103°54'2 3.4
2018-May-27 16:30N 01°14' E 103°55'5 9.7
2018-May-27 16:00N 01°16' E 103°60'510.5
2018-May-27 15:30N 01°16' E 104°05'610.8
2018-May-27 14:58N 01°17' E 104°11'510.5
2018-May-27 14:30N 01°18' E 104°16'610.9
2018-May-27 14:00N 01°19' E 104°21'612.4
2018-May-27 13:31N 01°24' E 104°25'  
2018-May-21 20:34N 01°13' E 103°56'116.3
2018-May-21 20:30N 01°13' E 103°55'612.3
2018-May-21 19:59N 01°12' E 103°49'5 9.6
2018-May-21 19:30N 01°16' E 103°47'0 0.5
2018-May-21 18:56N 01°16' E 103°47'0 0.0
2018-May-21 18:28N 01°16' E 103°47'0 0.0
2018-May-21 17:58N 01°16' E 103°47'0 0.0
2018-May-21 17:22N 01°16' E 103°47'0 0.0
2018-May-21 16:58N 01°16' E 103°47'0 0.0
2018-May-21 16:28N 01°16' E 103°47'0 0.0
2018-May-21 15:57N 01°16' E 103°47'0 0.0
2018-May-21 15:30N 01°16' E 103°47'0 0.0
2018-May-21 15:00N 01°16' E 103°47'0 0.0
2018-May-21 14:30N 01°16' E 103°47'0 0.0
2018-May-21 14:00N 01°16' E 103°47'0 0.0
2018-May-21 13:29N 01°16' E 103°47'0 0.0
2018-May-21 12:59N 01°16' E 103°47'0 0.0
2018-May-21 12:29N 01°16' E 103°47'0 0.0
2018-May-21 11:59N 01°16' E 103°47'0 0.0
2018-May-21 11:28N 01°16' E 103°47'0 0.0
2018-May-21 10:58N 01°16' E 103°47'0 0.0
2018-May-21 10:22N 01°16' E 103°47'0 0.0
2018-May-21 09:58N 01°16' E 103°47'0 0.0
2018-May-21 09:28N 01°16' E 103°47'0 0.0
2018-May-21 08:57N 01°16' E 103°47'0 0.0
2018-May-21 08:30N 01°16' E 103°47'0 0.0
2018-May-21 08:00N 01°16' E 103°47'0 0.0
2018-May-21 07:28N 01°16' E 103°47'1 2.6
2018-May-21 07:00N 01°15' E 103°46'4 8.7
2018-May-21 06:31N 01°13' E 103°42'6 9.7
2018-May-21 05:55N 01°12' E 103°36'2 3.8
2018-May-21 05:27N 01°13' E 103°35'3 5.5
2018-May-21 04:59N 01°14' E 103°32'2 4.4
2018-May-21 04:30N 01°16' E 103°33'5 8.8
2018-May-21 03:54N 01°21' E 103°33'0 0.1
2018-May-21 00:40N 01°22' E 103°33'0 0.0
2018-May-21 00:20N 01°22' E 103°33'0 0.0
2018-May-20 22:54N 01°22' E 103°33'0 0.0
2018-May-20 22:30N 01°22' E 103°33'0 0.0
2018-May-20 21:58N 01°22' E 103°33'0 0.0
2018-May-20 21:30N 01°22' E 103°33'0 0.0
2018-May-20 20:59N 01°22' E 103°33'0 0.0
2018-May-20 20:30N 01°22' E 103°33'0 0.0
2018-May-20 19:53N 01°22' E 103°33'0 0.0
2018-May-20 19:17N 01°22' E 103°33'0 0.0
2018-May-20 19:00N 01°22' E 103°33'0 0.0
2018-May-20 18:30N 01°22' E 103°33'0 0.0
2018-May-20 17:59N 01°22' E 103°33'0 0.0
2018-May-20 17:22N 01°22' E 103°33'0 0.0
2018-May-20 16:58N 01°22' E 103°33'0 0.0
2018-May-20 16:29N 01°22' E 103°33'0 0.0
2018-May-20 15:57N 01°22' E 103°33'0 0.0
2018-May-20 15:16N 01°22' E 103°33'0 0.0
2018-May-20 15:00N 01°22' E 103°33'1 1.7
2018-May-20 14:30N 01°21' E 103°33'510.6
2018-May-20 14:00N 01°16' E 103°33'3 5.7
2018-May-20 13:29N 01°14' E 103°30'2 4.9
2018-May-20 12:59N 01°15' E 103°28'0 0.0
2018-May-20 12:25N 01°15' E 103°28'0 0.0
2018-May-20 11:55N 01°15' E 103°28'0 0.0
2018-May-20 11:28N 01°15' E 103°28'0 0.1
2018-May-20 10:15N 01°15' E 103°28'0 0.1
2018-May-20 09:51N 01°15' E 103°28'1 2.2
2018-May-20 09:30N 01°14' E 103°28'3 5.2
2018-May-20 08:59N 01°12' E 103°29'3 5.5
2018-May-20 08:30N 01°11' E 103°27'4 7.6
2018-May-20 08:00N 01°12' E 103°24'4 7.6
2018-May-20 07:26N 01°15' E 103°21'  

Dump ship's entire track history